createdAt,value
2019-05-18T00:03:23.058Z,3.20
2019-05-18T00:08:28.042Z,3.20
2019-05-18T00:13:33.587Z,3.80
2019-05-18T00:18:38.792Z,3.13
2019-05-18T00:23:43.940Z,2.87
2019-05-18T00:28:48.763Z,3.10
2019-05-18T00:33:53.732Z,2.93
2019-05-18T00:38:59.917Z,3.20
2019-05-18T00:44:04.912Z,3.40
2019-05-18T00:49:09.185Z,3.40
2019-05-18T00:54:15.005Z,4.00
2019-05-18T00:59:20.124Z,3.60
2019-05-18T01:04:25.702Z,4.00
2019-05-18T01:09:31.211Z,4.10
2019-05-18T01:14:36.477Z,4.37
2019-05-18T01:19:42.118Z,3.93
2019-05-18T01:24:47.265Z,4.30
2019-05-18T01:29:52.973Z,3.83
2019-05-18T01:34:58.321Z,3.87
2019-05-18T01:40:04.779Z,3.63
2019-05-18T01:45:16.929Z,3.90
2019-05-18T01:50:17.143Z,3.40
2019-05-18T01:55:22.750Z,3.47
2019-05-18T02:00:27.335Z,3.20
2019-05-18T02:05:32.464Z,3.00
2019-05-18T02:10:37.956Z,2.97
2019-05-18T02:15:43.311Z,2.83
2019-05-18T02:20:48.298Z,3.30
2019-05-18T02:25:52.242Z,3.30
2019-05-18T02:30:56.238Z,3.50
2019-05-18T02:36:00.413Z,3.20
2019-05-18T02:41:04.819Z,3.80
2019-05-18T02:46:08.200Z,3.10
2019-05-18T02:51:12.027Z,3.47
2019-05-18T02:56:15.484Z,3.63
2019-05-18T03:01:20.196Z,3.63
2019-05-18T03:06:23.621Z,3.17
2019-05-18T03:11:27.015Z,3.47
2019-05-18T03:16:31.263Z,3.73
2019-05-18T03:21:35.760Z,3.30
2019-05-18T03:26:40.343Z,3.83
2019-05-18T03:31:44.715Z,24.13
2019-05-18T03:36:49.040Z,16.20
2019-05-18T03:41:53.157Z,17.03
2019-05-18T03:46:57.287Z,17.93
2019-05-18T03:52:01.431Z,16.87
2019-05-18T03:57:05.738Z,17.23
2019-05-18T04:02:10.818Z,15.30
2019-05-18T04:07:15.819Z,11.50
2019-05-18T04:12:21.033Z,12.57
2019-05-18T04:17:26.119Z,11.53
2019-05-18T04:22:31.275Z,12.37
2019-05-18T04:27:36.752Z,11.60
2019-05-18T04:32:42.196Z,11.00
2019-05-18T04:37:47.084Z,10.43
2019-05-18T04:42:53.391Z,10.17
2019-05-18T04:47:58.503Z,10.20
2019-05-18T04:53:03.982Z,9.37
2019-05-18T04:58:09.052Z,10.07
2019-05-18T05:03:14.176Z,10.30
2019-05-18T05:08:19.582Z,10.30
2019-05-18T05:13:24.881Z,9.20
2019-05-18T05:18:31.876Z,9.53
2019-05-18T05:23:37.077Z,9.57
2019-05-18T05:28:41.980Z,8.83
2019-05-18T05:33:47.188Z,10.90
2019-05-18T05:38:52.227Z,9.60
2019-05-18T05:43:58.585Z,12.33
2019-05-18T05:49:03.999Z,10.80
2019-05-18T05:54:09.918Z,10.30
2019-05-18T05:59:15.495Z,9.07
2019-05-18T06:04:20.678Z,9.83
2019-05-18T06:09:26.211Z,10.50
2019-05-18T06:14:31.883Z,11.03
2019-05-18T06:19:36.999Z,11.13
2019-05-18T06:24:42.576Z,11.40
2019-05-18T06:29:47.758Z,11.43
2019-05-18T06:34:53.671Z,10.60
2019-05-18T06:39:58.952Z,9.97
2019-05-18T06:45:05.349Z,10.77
2019-05-18T06:50:12.755Z,10.10
2019-05-18T06:55:19.166Z,8.50
2019-05-18T07:00:24.559Z,8.40
2019-05-18T07:05:29.595Z,8.60
2019-05-18T07:10:35.287Z,9.20
2019-05-18T07:15:39.210Z,8.87
2019-05-18T07:20:43.449Z,8.67
2019-05-18T07:25:47.963Z,7.77
2019-05-18T07:30:52.377Z,8.60
2019-05-18T07:35:56.757Z,8.07
2019-05-18T07:41:00.352Z,7.87
2019-05-18T07:46:08.748Z,8.97
2019-05-18T07:51:13.222Z,9.70
2019-05-18T07:56:16.775Z,8.53
2019-05-18T08:01:20.652Z,9.10
2019-05-18T08:06:25.205Z,10.43
2019-05-18T08:11:30.337Z,9.23
2019-05-18T08:16:34.974Z,9.73
2019-05-18T08:21:52.283Z,9.90
2019-05-18T08:26:45.834Z,9.70
2019-05-18T08:31:50.400Z,8.70
2019-05-18T08:36:54.646Z,9.20
2019-05-18T08:41:58.997Z,8.87
2019-05-18T08:47:03.548Z,9.93
2019-05-18T08:52:08.832Z,10.03
2019-05-18T08:57:14.831Z,9.80
2019-05-18T09:02:20.062Z,10.47
2019-05-18T09:07:25.485Z,11.90
2019-05-18T09:12:31.998Z,10.70
2019-05-18T09:17:37.803Z,11.40
2019-05-18T09:22:43.150Z,12.33
2019-05-18T09:27:49.284Z,10.97
2019-05-18T09:32:54.516Z,11.80
2019-05-18T09:38:01.745Z,11.33
2019-05-18T09:43:07.504Z,11.50
2019-05-18T09:48:13.674Z,10.73
2019-05-18T09:53:18.689Z,9.77
2019-05-18T09:58:23.939Z,10.40
2019-05-18T10:03:29.790Z,9.90
2019-05-18T10:08:35.120Z,8.33
2019-05-18T10:13:40.334Z,9.43
2019-05-18T10:18:45.735Z,9.23
2019-05-18T10:23:50.793Z,9.50
2019-05-18T10:28:57.235Z,8.30
2019-05-18T10:34:02.636Z,8.40
2019-05-18T10:39:08.846Z,8.37
2019-05-18T10:44:14.507Z,8.93
2019-05-18T10:49:19.774Z,9.33
2019-05-18T10:54:25.445Z,9.30
2019-05-18T10:59:30.985Z,7.90
2019-05-18T11:04:36.735Z,8.13
2019-05-18T11:09:42.474Z,8.77
2019-05-18T11:14:47.673Z,7.83
2019-05-18T11:19:52.949Z,6.30
2019-05-18T11:24:58.434Z,4.00
2019-05-18T11:30:05.770Z,3.30
2019-05-18T11:35:11.724Z,3.53
2019-05-18T11:40:18.110Z,3.57
2019-05-18T11:45:24.750Z,3.60
2019-05-18T11:50:30.372Z,3.50
2019-05-18T11:55:35.830Z,3.60
2019-05-18T12:00:41.173Z,3.40
2019-05-18T12:05:45.646Z,4.00
2019-05-18T12:10:49.963Z,3.57
2019-05-18T12:15:54.231Z,3.90
2019-05-18T12:21:03.619Z,3.60
2019-05-18T12:26:09.063Z,3.50
2019-05-18T12:31:13.013Z,3.33
2019-05-18T12:36:16.645Z,3.70
2019-05-18T12:41:30.036Z,4.13
2019-05-18T12:46:34.410Z,3.50
2019-05-18T12:51:39.191Z,6.27
2019-05-18T12:56:44.056Z,4.17
2019-05-18T13:01:48.504Z,5.13
2019-05-18T13:06:52.909Z,5.73
2019-05-18T13:11:58.222Z,4.00
2019-05-18T13:17:13.425Z,4.77
2019-05-18T13:22:24.723Z,4.60
2019-05-18T13:27:48.401Z,4.90
2019-05-18T13:33:11.026Z,5.10
2019-05-18T13:38:20.331Z,5.03
2019-05-18T13:43:29.885Z,4.87
2019-05-18T13:48:43.660Z,4.87
2019-05-18T13:53:47.705Z,6.87
2019-05-18T13:58:57.326Z,6.80
2019-05-18T14:04:06.216Z,6.40
2019-05-18T14:09:10.755Z,5.90
2019-05-18T14:14:16.094Z,6.53
2019-05-18T14:19:22.859Z,7.20
2019-05-18T14:24:28.385Z,6.53
2019-05-18T14:29:33.503Z,6.20
2019-05-18T14:34:38.624Z,6.50
2019-05-18T14:39:44.501Z,6.77
2019-05-18T16:14:41.231Z,6.90
2019-05-18T16:36:14.047Z,9.50
2019-05-18T16:41:18.009Z,6.53
2019-05-18T16:46:23.013Z,6.17
2019-05-18T16:51:26.564Z,6.90
2019-05-18T16:56:35.318Z,9.47
2019-05-18T17:01:38.989Z,7.23
2019-05-18T17:06:43.407Z,7.03
2019-05-18T17:11:48.243Z,7.70
2019-05-18T17:16:52.732Z,14.30
2019-05-18T17:21:57.086Z,16.03
2019-05-18T17:27:01.397Z,10.07
2019-05-18T17:32:06.059Z,8.77
2019-05-18T17:37:10.639Z,5.40
2019-05-18T17:42:20.059Z,5.50
2019-05-18T17:47:25.003Z,5.90
2019-05-18T17:52:30.536Z,10.70
2019-05-18T17:57:34.888Z,18.10
2019-05-18T18:02:39.224Z,4.87
2019-05-18T18:07:44.318Z,4.40
2019-05-18T18:12:49.955Z,4.30
2019-05-18T18:17:55.160Z,4.13
2019-05-18T18:23:00.211Z,4.60
2019-05-18T18:28:06.351Z,3.00
2019-05-18T18:33:12.159Z,2.40
2019-05-18T18:38:18.449Z,2.30
2019-05-18T18:43:24.316Z,2.30
2019-05-18T18:48:30.257Z,2.73
2019-05-18T18:53:35.372Z,3.40
2019-05-18T18:58:40.419Z,2.63
2019-05-18T19:03:46.651Z,2.37
2019-05-18T19:08:52.083Z,2.20
2019-05-18T19:13:57.347Z,2.17
2019-05-18T19:19:02.970Z,2.30
2019-05-18T19:24:09.049Z,2.47
2019-05-18T19:29:14.923Z,2.17
2019-05-18T19:34:20.128Z,2.50
2019-05-18T19:39:26.562Z,2.97
2019-05-18T19:44:32.371Z,2.77
2019-05-18T19:49:37.605Z,2.80
2019-05-18T19:54:43.018Z,3.17
2019-05-18T19:59:48.081Z,3.33
2019-05-18T20:05:06.720Z,3.20
2019-05-18T20:10:00.394Z,3.07
2019-05-18T20:15:09.407Z,3.70
2019-05-18T20:20:13.906Z,3.93
2019-05-18T20:25:19.536Z,3.87
2019-05-18T20:30:25.147Z,3.80
2019-05-18T20:35:30.897Z,4.23
2019-05-18T20:40:37.626Z,4.30
2019-05-18T20:45:43.044Z,4.07
2019-05-18T20:50:47.950Z,3.63
2019-05-18T20:55:53.466Z,4.37
2019-05-18T21:00:58.255Z,3.80
2019-05-18T21:06:03.033Z,3.03
2019-05-18T21:11:07.583Z,3.60
2019-05-18T21:16:13.991Z,3.33
2019-05-18T21:21:24.670Z,3.50
2019-05-18T21:26:25.329Z,3.30
2019-05-18T21:31:30.295Z,3.43
2019-05-18T21:36:34.897Z,3.13
2019-05-18T21:41:39.649Z,3.30
2019-05-18T21:46:44.602Z,3.57
2019-05-18T21:51:50.157Z,3.50
2019-05-18T21:56:54.523Z,3.50
2019-05-18T22:01:58.704Z,3.40
2019-05-18T22:07:03.029Z,3.63
2019-05-18T22:12:06.694Z,3.87
2019-05-18T22:17:11.764Z,3.90
2019-05-18T22:22:17.458Z,4.40
2019-05-18T22:27:23.101Z,4.47
2019-05-18T22:32:27.352Z,4.30
2019-05-18T22:37:32.275Z,4.23
2019-05-18T22:42:38.450Z,4.20
2019-05-18T22:47:43.834Z,4.50
2019-05-18T22:52:49.000Z,4.40
2019-05-18T22:57:54.171Z,4.47
2019-05-18T23:02:59.061Z,4.60
2019-05-18T23:08:03.549Z,4.07
2019-05-18T23:13:09.159Z,4.20
2019-05-18T23:18:14.717Z,4.50
2019-05-18T23:23:20.395Z,4.80
2019-05-18T23:28:25.548Z,5.13
2019-05-18T23:33:30.582Z,4.27
2019-05-18T23:38:36.045Z,4.83
2019-05-18T23:43:41.510Z,4.37
2019-05-18T23:48:46.790Z,4.57
2019-05-18T23:53:53.775Z,5.27
2019-05-18T23:58:58.972Z,4.90
